sensor_id;sensor_type;location;lat;lon;timestamp;temperature;humidity
5346;DHT22;2695;49.444;11.054;2023-04-12T00:01:58;7.50;99.90
5346;DHT22;2695;49.444;11.054;2023-04-12T00:04:28;7.60;99.90
5346;DHT22;2695;49.444;11.054;2023-04-12T00:06:56;7.60;99.90
5346;DHT22;2695;49.444;11.054;2023-04-12T00:09:26;7.70;99.90
5346;DHT22;2695;49.444;11.054;2023-04-12T00:11:57;7.70;99.90
5346;DHT22;2695;49.444;11.054;2023-04-12T00:14:25;7.70;99.90
5346;DHT22;2695;49.444;11.054;2023-04-12T00:16:53;7.70;99.90
5346;DHT22;2695;49.444;11.054;2023-04-12T00:19:21;7.70;99.90
5346;DHT22;2695;49.444;11.054;2023-04-12T00:21:54;7.70;99.90
5346;DHT22;2695;49.444;11.054;2023-04-12T00:24:24;7.60;99.90
5346;DHT22;2695;49.444;11.054;2023-04-12T00:26:53;7.60;99.90
5346;DHT22;2695;49.444;11.054;2023-04-12T00:29:21;7.50;99.90
5346;DHT22;2695;49.444;11.054;2023-04-12T00:31:49;7.50;99.90
5346;DHT22;2695;49.444;11.054;2023-04-12T00:34:17;7.60;99.90
5346;DHT22;2695;49.444;11.054;2023-04-12T00:36:45;7.60;99.90
5346;DHT22;2695;49.444;11.054;2023-04-12T00:39:15;7.60;99.90
5346;DHT22;2695;49.444;11.054;2023-04-12T00:41:43;7.70;99.90
5346;DHT22;2695;49.444;11.054;2023-04-12T00:44:11;7.70;99.90
5346;DHT22;2695;49.444;11.054;2023-04-12T00:46:39;7.70;99.90
5346;DHT22;2695;49.444;11.054;2023-04-12T00:49:08;7.70;99.90
5346;DHT22;2695;49.444;11.054;2023-04-12T00:51:38;7.80;99.90
5346;DHT22;2695;49.444;11.054;2023-04-12T00:54:07;7.70;99.90
5346;DHT22;2695;49.444;11.054;2023-04-12T00:56:37;7.80;99.90
5346;DHT22;2695;49.444;11.054;2023-04-12T00:59:06;7.80;99.90
5346;DHT22;2695;49.444;11.054;2023-04-12T01:01:34;7.80;99.90
5346;DHT22;2695;49.444;11.054;2023-04-12T01:04:04;7.80;99.90
5346;DHT22;2695;49.444;11.054;2023-04-12T01:06:43;7.80;99.90
5346;DHT22;2695;49.444;11.054;2023-04-12T01:09:21;7.80;99.90
5346;DHT22;2695;49.444;11.054;2023-04-12T01:12:00;7.80;99.90
5346;DHT22;2695;49.444;11.054;2023-04-12T01:14:42;7.80;99.90
5346;DHT22;2695;49.444;11.054;2023-04-12T01:17:16;7.80;99.90
5346;DHT22;2695;49.444;11.054;2023-04-12T01:19:53;7.80;99.90
5346;DHT22;2695;49.444;11.054;2023-04-12T01:22:44;7.80;99.90
5346;DHT22;2695;49.444;11.054;2023-04-12T01:25:27;7.70;99.90
5346;DHT22;2695;49.444;11.054;2023-04-12T01:28:02;7.70;99.90
5346;DHT22;2695;49.444;11.054;2023-04-12T01:30:31;7.60;99.90
5346;DHT22;2695;49.444;11.054;2023-04-12T01:33:03;7.60;99.90
5346;DHT22;2695;49.444;11.054;2023-04-12T01:35:32;7.60;99.90
5346;DHT22;2695;49.444;11.054;2023-04-12T01:38:02;7.60;99.90
5346;DHT22;2695;49.444;11.054;2023-04-12T01:40:30;7.60;99.90
5346;DHT22;2695;49.444;11.054;2023-04-12T01:43:07;7.50;99.90
5346;DHT22;2695;49.444;11.054;2023-04-12T01:45:35;7.50;99.90
5346;DHT22;2695;49.444;11.054;2023-04-12T01:48:06;7.50;99.90
5346;DHT22;2695;49.444;11.054;2023-04-12T01:50:40;7.40;99.90
5346;DHT22;2695;49.444;11.054;2023-04-12T01:53:13;7.40;99.90
5346;DHT22;2695;49.444;11.054;2023-04-12T01:55:45;7.40;99.90
5346;DHT22;2695;49.444;11.054;2023-04-12T01:58:19;7.30;99.90
5346;DHT22;2695;49.444;11.054;2023-04-12T02:00:48;7.30;99.90
5346;DHT22;2695;49.444;11.054;2023-04-12T02:03:18;7.30;99.90
5346;DHT22;2695;49.444;11.054;2023-04-12T02:05:48;7.50;99.90
5346;DHT22;2695;49.444;11.054;2023-04-12T02:08:17;7.10;99.90
5346;DHT22;2695;49.444;11.054;2023-04-12T02:10:45;7.30;99.90
5346;DHT22;2695;49.444;11.054;2023-04-12T02:13:14;7.30;99.90
5346;DHT22;2695;49.444;11.054;2023-04-12T02:15:43;7.30;99.90
5346;DHT22;2695;49.444;11.054;2023-04-12T02:18:11;7.30;99.90
5346;DHT22;2695;49.444;11.054;2023-04-12T02:20:42;7.20;99.90
5346;DHT22;2695;49.444;11.054;2023-04-12T02:23:10;7.20;99.90
5346;DHT22;2695;49.444;11.054;2023-04-12T02:25:38;7.20;99.90
5346;DHT22;2695;49.444;11.054;2023-04-12T02:28:07;7.20;99.90
5346;DHT22;2695;49.444;11.054;2023-04-12T02:30:36;7.20;99.90
5346;DHT22;2695;49.444;11.054;2023-04-12T02:33:04;7.20;99.90
5346;DHT22;2695;49.444;11.054;2023-04-12T02:35:35;7.10;99.90
5346;DHT22;2695;49.444;11.054;2023-04-12T02:38:03;7.20;99.90
5346;DHT22;2695;49.444;11.054;2023-04-12T02:40:37;7.30;99.90
5346;DHT22;2695;49.444;11.054;2023-04-12T02:43:05;7.30;99.90
5346;DHT22;2695;49.444;11.054;2023-04-12T02:45:35;7.30;99.90
5346;DHT22;2695;49.444;11.054;2023-04-12T02:48:04;8.40;99.90
5346;DHT22;2695;49.444;11.054;2023-04-12T02:50:32;7.30;99.90
5346;DHT22;2695;49.444;11.054;2023-04-12T02:53:00;7.30;99.90
5346;DHT22;2695;49.444;11.054;2023-04-12T02:55:28;9.00;99.90
5346;DHT22;2695;49.444;11.054;2023-04-12T02:57:56;7.30;99.90
5346;DHT22;2695;49.444;11.054;2023-04-12T03:00:24;7.60;99.90
5346;DHT22;2695;49.444;11.054;2023-04-12T03:02:54;8.20;99.90
5346;DHT22;2695;49.444;11.054;2023-04-12T03:05:24;7.40;99.90
5346;DHT22;2695;49.444;11.054;2023-04-12T03:07:53;7.50;99.90
5346;DHT22;2695;49.444;11.054;2023-04-12T03:10:21;8.80;99.90
5346;DHT22;2695;49.444;11.054;2023-04-12T03:12:49;7.50;99.90
5346;DHT22;2695;49.444;11.054;2023-04-12T03:15:17;7.60;99.90
5346;DHT22;2695;49.444;11.054;2023-04-12T03:17:47;7.50;99.90
5346;DHT22;2695;49.444;11.054;2023-04-12T03:20:17;7.50;99.90
5346;DHT22;2695;49.444;11.054;2023-04-12T03:22:46;7.60;99.90
5346;DHT22;2695;49.444;11.054;2023-04-12T03:25:14;7.80;99.90
5346;DHT22;2695;49.444;11.054;2023-04-12T03:27:43;7.50;99.90
5346;DHT22;2695;49.444;11.054;2023-04-12T03:30:12;7.50;99.90
5346;DHT22;2695;49.444;11.054;2023-04-12T03:32:41;7.50;99.90
5346;DHT22;2695;49.444;11.054;2023-04-12T03:35:09;7.50;99.90
5346;DHT22;2695;49.444;11.054;2023-04-12T03:37:40;7.50;99.90
5346;DHT22;2695;49.444;11.054;2023-04-12T03:40:09;7.50;99.90
5346;DHT22;2695;49.444;11.054;2023-04-12T03:42:37;7.50;99.90
5346;DHT22;2695;49.444;11.054;2023-04-12T03:45:06;7.40;99.90
5346;DHT22;2695;49.444;11.054;2023-04-12T03:47:34;7.40;99.90
5346;DHT22;2695;49.444;11.054;2023-04-12T03:50:04;7.40;99.90
5346;DHT22;2695;49.444;11.054;2023-04-12T03:52:43;7.40;99.90
5346;DHT22;2695;49.444;11.054;2023-04-12T03:55:11;7.40;99.90
5346;DHT22;2695;49.444;11.054;2023-04-12T03:57:43;7.50;99.90
5346;DHT22;2695;49.444;11.054;2023-04-12T04:00:13;7.60;99.90
5346;DHT22;2695;49.444;11.054;2023-04-12T04:02:41;7.60;99.90
5346;DHT22;2695;49.444;11.054;2023-04-12T04:05:09;7.50;99.90
5346;DHT22;2695;49.444;11.054;2023-04-12T04:07:39;7.50;99.90
5346;DHT22;2695;49.444;11.054;2023-04-12T04:10:09;7.50;99.90
5346;DHT22;2695;49.444;11.054;2023-04-12T04:12:37;7.50;99.90
5346;DHT22;2695;49.444;11.054;2023-04-12T04:15:06;7.50;99.90
5346;DHT22;2695;49.444;11.054;2023-04-12T04:17:34;7.50;99.90
5346;DHT22;2695;49.444;11.054;2023-04-12T04:20:03;7.50;99.90
5346;DHT22;2695;49.444;11.054;2023-04-12T04:22:32;7.40;99.90
5346;DHT22;2695;49.444;11.054;2023-04-12T04:25:00;7.40;99.90
5346;DHT22;2695;49.444;11.054;2023-04-12T04:27:31;7.50;99.90
5346;DHT22;2695;49.444;11.054;2023-04-12T04:29:59;7.50;99.90
5346;DHT22;2695;49.444;11.054;2023-04-12T04:32:28;7.50;99.90
5346;DHT22;2695;49.444;11.054;2023-04-12T04:34:57;7.50;99.90
5346;DHT22;2695;49.444;11.054;2023-04-12T04:37:27;7.50;99.90
5346;DHT22;2695;49.444;11.054;2023-04-12T04:39:56;7.50;99.90
5346;DHT22;2695;49.444;11.054;2023-04-12T04:42:24;7.60;99.90
5346;DHT22;2695;49.444;11.054;2023-04-12T04:44:54;7.60;99.90
5346;DHT22;2695;49.444;11.054;2023-04-12T04:47:28;7.60;99.90
5346;DHT22;2695;49.444;11.054;2023-04-12T04:49:58;7.70;99.90
5346;DHT22;2695;49.444;11.054;2023-04-12T04:52:26;7.80;99.90
5346;DHT22;2695;49.444;11.054;2023-04-12T04:54:55;7.80;99.90
5346;DHT22;2695;49.444;11.054;2023-04-12T04:57:24;7.80;99.90
5346;DHT22;2695;49.444;11.054;2023-04-12T04:59:53;7.80;99.90
5346;DHT22;2695;49.444;11.054;2023-04-12T05:02:21;7.80;99.90
5346;DHT22;2695;49.444;11.054;2023-04-12T05:04:50;7.80;99.90
5346;DHT22;2695;49.444;11.054;2023-04-12T05:07:18;7.90;99.90
5346;DHT22;2695;49.444;11.054;2023-04-12T05:09:46;7.90;99.90
5346;DHT22;2695;49.444;11.054;2023-04-12T05:12:14;7.90;99.90
5346;DHT22;2695;49.444;11.054;2023-04-12T05:14:42;7.90;99.90
5346;DHT22;2695;49.444;11.054;2023-04-12T05:17:18;7.90;99.90
5346;DHT22;2695;49.444;11.054;2023-04-12T05:19:46;7.90;99.90
5346;DHT22;2695;49.444;11.054;2023-04-12T05:22:17;7.90;99.90
5346;DHT22;2695;49.444;11.054;2023-04-12T05:24:56;7.50;99.90
5346;DHT22;2695;49.444;11.054;2023-04-12T05:27:30;7.90;99.90
5346;DHT22;2695;49.444;11.054;2023-04-12T05:30:01;7.90;99.90
5346;DHT22;2695;49.444;11.054;2023-04-12T05:32:33;8.00;99.90
5346;DHT22;2695;49.444;11.054;2023-04-12T05:35:02;8.00;99.90
5346;DHT22;2695;49.444;11.054;2023-04-12T05:37:38;8.00;99.90
5346;DHT22;2695;49.444;11.054;2023-04-12T05:40:07;8.10;99.90
5346;DHT22;2695;49.444;11.054;2023-04-12T05:42:36;8.10;99.90
5346;DHT22;2695;49.444;11.054;2023-04-12T05:45:04;8.20;99.90
5346;DHT22;2695;49.444;11.054;2023-04-12T05:47:35;8.20;99.90
5346;DHT22;2695;49.444;11.054;2023-04-12T05:50:05;8.20;99.90
5346;DHT22;2695;49.444;11.054;2023-04-12T05:52:35;8.30;99.90
5346;DHT22;2695;49.444;11.054;2023-04-12T05:55:03;8.30;99.90
5346;DHT22;2695;49.444;11.054;2023-04-12T05:57:31;8.30;99.90
5346;DHT22;2695;49.444;11.054;2023-04-12T05:59:59;8.30;99.90
5346;DHT22;2695;49.444;11.054;2023-04-12T06:02:27;8.30;99.90
5346;DHT22;2695;49.444;11.054;2023-04-12T06:04:58;8.30;99.90
5346;DHT22;2695;49.444;11.054;2023-04-12T06:07:26;8.40;99.90
5346;DHT22;2695;49.444;11.054;2023-04-12T06:09:54;8.40;99.90
5346;DHT22;2695;49.444;11.054;2023-04-12T06:12:22;8.40;99.90
5346;DHT22;2695;49.444;11.054;2023-04-12T06:14:50;8.40;99.90
5346;DHT22;2695;49.444;11.054;2023-04-12T06:17:18;8.30;99.90
5346;DHT22;2695;49.444;11.054;2023-04-12T06:19:46;8.20;99.90
5346;DHT22;2695;49.444;11.054;2023-04-12T06:22:16;8.10;99.90
5346;DHT22;2695;49.444;11.054;2023-04-12T06:24:44;8.20;99.90
5346;DHT22;2695;49.444;11.054;2023-04-12T06:27:12;8.20;99.90
5346;DHT22;2695;49.444;11.054;2023-04-12T06:29:39;8.20;99.90
5346;DHT22;2695;49.444;11.054;2023-04-12T06:32:08;8.20;99.90
5346;DHT22;2695;49.444;11.054;2023-04-12T06:34:36;8.20;99.90
5346;DHT22;2695;49.444;11.054;2023-04-12T06:37:04;8.10;99.90
5346;DHT22;2695;49.444;11.054;2023-04-12T06:39:33;8.10;99.90
5346;DHT22;2695;49.444;11.054;2023-04-12T06:42:01;8.20;99.90
5346;DHT22;2695;49.444;11.054;2023-04-12T06:44:29;8.20;99.90
5346;DHT22;2695;49.444;11.054;2023-04-12T06:46:59;8.20;99.90
5346;DHT22;2695;49.444;11.054;2023-04-12T06:49:27;8.20;99.90
5346;DHT22;2695;49.444;11.054;2023-04-12T06:51:55;8.30;99.90
5346;DHT22;2695;49.444;11.054;2023-04-12T06:54:23;8.20;99.90
5346;DHT22;2695;49.444;11.054;2023-04-12T06:56:52;8.30;99.90
5346;DHT22;2695;49.444;11.054;2023-04-12T06:59:22;8.30;99.90
5346;DHT22;2695;49.444;11.054;2023-04-12T07:01:50;8.40;99.90
5346;DHT22;2695;49.444;11.054;2023-04-12T07:04:18;8.40;99.90
5346;DHT22;2695;49.444;11.054;2023-04-12T07:06:46;8.40;99.90
5346;DHT22;2695;49.444;11.054;2023-04-12T07:09:15;8.40;99.90
5346;DHT22;2695;49.444;11.054;2023-04-12T07:11:42;8.30;99.90
5346;DHT22;2695;49.444;11.054;2023-04-12T07:14:12;8.10;99.90
5346;DHT22;2695;49.444;11.054;2023-04-12T07:16:41;8.00;99.90
5346;DHT22;2695;49.444;11.054;2023-04-12T07:19:09;8.00;99.90
5346;DHT22;2695;49.444;11.054;2023-04-12T07:21:38;7.90;99.90
5346;DHT22;2695;49.444;11.054;2023-04-12T07:24:06;8.00;99.90
5346;DHT22;2695;49.444;11.054;2023-04-12T07:26:34;8.00;99.90
5346;DHT22;2695;49.444;11.054;2023-04-12T07:29:03;8.00;99.90
5346;DHT22;2695;49.444;11.054;2023-04-12T07:31:32;8.00;99.90
5346;DHT22;2695;49.444;11.054;2023-04-12T07:34:01;8.00;99.90
5346;DHT22;2695;49.444;11.054;2023-04-12T07:36:29;8.10;99.90
5346;DHT22;2695;49.444;11.054;2023-04-12T07:38:57;8.10;99.90
5346;DHT22;2695;49.444;11.054;2023-04-12T07:41:26;8.10;99.90
5346;DHT22;2695;49.444;11.054;2023-04-12T07:43:54;8.20;99.90
5346;DHT22;2695;49.444;11.054;2023-04-12T07:46:22;8.20;99.90
5346;DHT22;2695;49.444;11.054;2023-04-12T07:48:52;8.30;99.90
5346;DHT22;2695;49.444;11.054;2023-04-12T07:51:20;8.40;99.90
5346;DHT22;2695;49.444;11.054;2023-04-12T07:53:48;8.50;99.90
5346;DHT22;2695;49.444;11.054;2023-04-12T07:56:16;8.60;99.90
5346;DHT22;2695;49.444;11.054;2023-04-12T07:58:43;8.70;99.90
5346;DHT22;2695;49.444;11.054;2023-04-12T08:01:12;8.80;99.90
5346;DHT22;2695;49.444;11.054;2023-04-12T08:03:40;8.70;99.90
5346;DHT22;2695;49.444;11.054;2023-04-12T08:06:09;8.70;99.90
5346;DHT22;2695;49.444;11.054;2023-04-12T08:08:38;8.70;99.90
5346;DHT22;2695;49.444;11.054;2023-04-12T08:11:06;8.80;99.90
5346;DHT22;2695;49.444;11.054;2023-04-12T08:13:34;8.90;99.90
5346;DHT22;2695;49.444;11.054;2023-04-12T08:16:02;9.10;99.90
5346;DHT22;2695;49.444;11.054;2023-04-12T08:18:30;9.20;99.90
5346;DHT22;2695;49.444;11.054;2023-04-12T08:20:59;9.30;99.90
5346;DHT22;2695;49.444;11.054;2023-04-12T08:23:29;9.40;99.90
5346;DHT22;2695;49.444;11.054;2023-04-12T08:25:57;9.50;99.90
5346;DHT22;2695;49.444;11.054;2023-04-12T08:28:29;9.60;99.90
5346;DHT22;2695;49.444;11.054;2023-04-12T08:30:58;9.70;99.90
5346;DHT22;2695;49.444;11.054;2023-04-12T08:33:26;9.70;99.90
5346;DHT22;2695;49.444;11.054;2023-04-12T08:35:54;9.70;99.90
5346;DHT22;2695;49.444;11.054;2023-04-12T08:38:22;9.80;99.90
5346;DHT22;2695;49.444;11.054;2023-04-12T08:41:08;9.90;99.90
5346;DHT22;2695;49.444;11.054;2023-04-12T08:43:37;10.00;99.90
5346;DHT22;2695;49.444;11.054;2023-04-12T08:46:07;10.00;99.90
5346;DHT22;2695;49.444;11.054;2023-04-12T08:48:37;10.00;99.90
5346;DHT22;2695;49.444;11.054;2023-04-12T08:51:07;10.00;99.90
5346;DHT22;2695;49.444;11.054;2023-04-12T08:53:37;10.00;99.90
5346;DHT22;2695;49.444;11.054;2023-04-12T08:56:08;10.00;99.90
5346;DHT22;2695;49.444;11.054;2023-04-12T08:58:38;9.90;99.90
5346;DHT22;2695;49.444;11.054;2023-04-12T09:01:10;9.70;99.90
5346;DHT22;2695;49.444;11.054;2023-04-12T09:03:40;9.40;99.90
5346;DHT22;2695;49.444;11.054;2023-04-12T09:06:11;9.40;99.90
5346;DHT22;2695;49.444;11.054;2023-04-12T09:08:53;9.50;99.90
5346;DHT22;2695;49.444;11.054;2023-04-12T09:11:25;9.50;99.90
5346;DHT22;2695;49.444;11.054;2023-04-12T09:13:54;9.50;99.90
5346;DHT22;2695;49.444;11.054;2023-04-12T09:16:34;9.30;99.90
5346;DHT22;2695;49.444;11.054;2023-04-12T09:19:03;9.20;99.90
5346;DHT22;2695;49.444;11.054;2023-04-12T09:21:31;9.10;99.90
5346;DHT22;2695;49.444;11.054;2023-04-12T09:24:04;9.00;99.90
5346;DHT22;2695;49.444;11.054;2023-04-12T09:26:40;9.00;99.90
5346;DHT22;2695;49.444;11.054;2023-04-12T09:29:21;9.00;99.90
5346;DHT22;2695;49.444;11.054;2023-04-12T09:31:55;9.00;99.90
5346;DHT22;2695;49.444;11.054;2023-04-12T09:34:23;8.80;99.90
5346;DHT22;2695;49.444;11.054;2023-04-12T09:36:53;8.70;99.90
5346;DHT22;2695;49.444;11.054;2023-04-12T09:39:30;8.50;99.90
5346;DHT22;2695;49.444;11.054;2023-04-12T09:42:10;8.50;99.90
5346;DHT22;2695;49.444;11.054;2023-04-12T09:44:57;8.50;99.90
5346;DHT22;2695;49.444;11.054;2023-04-12T09:47:36;8.40;99.90
5346;DHT22;2695;49.444;11.054;2023-04-12T09:50:07;8.40;99.90
5346;DHT22;2695;49.444;11.054;2023-04-12T09:52:36;8.40;99.90
5346;DHT22;2695;49.444;11.054;2023-04-12T09:55:08;8.30;99.90
5346;DHT22;2695;49.444;11.054;2023-04-12T09:57:40;8.30;99.90
5346;DHT22;2695;49.444;11.054;2023-04-12T10:00:10;8.30;99.90
5346;DHT22;2695;49.444;11.054;2023-04-12T10:02:44;8.30;99.90
5346;DHT22;2695;49.444;11.054;2023-04-12T10:05:15;8.50;99.90
5346;DHT22;2695;49.444;11.054;2023-04-12T10:07:44;8.40;99.90
5346;DHT22;2695;49.444;11.054;2023-04-12T10:10:14;8.40;99.90
5346;DHT22;2695;49.444;11.054;2023-04-12T10:12:45;8.40;99.90
5346;DHT22;2695;49.444;11.054;2023-04-12T10:15:14;8.60;99.90
5346;DHT22;2695;49.444;11.054;2023-04-12T10:17:45;8.60;99.90
5346;DHT22;2695;49.444;11.054;2023-04-12T10:20:15;8.60;99.90
5346;DHT22;2695;49.444;11.054;2023-04-12T10:22:45;8.70;99.90
5346;DHT22;2695;49.444;11.054;2023-04-12T10:25:15;8.80;99.90
5346;DHT22;2695;49.444;11.054;2023-04-12T10:27:46;9.00;99.90
5346;DHT22;2695;49.444;11.054;2023-04-12T10:30:19;9.10;99.90
5346;DHT22;2695;49.444;11.054;2023-04-12T10:35:49;9.00;99.90
5346;DHT22;2695;49.444;11.054;2023-04-12T10:38:18;8.80;99.90
5346;DHT22;2695;49.444;11.054;2023-04-12T10:41:11;8.70;99.90
5346;DHT22;2695;49.444;11.054;2023-04-12T10:43:42;8.90;99.90
5346;DHT22;2695;49.444;11.054;2023-04-12T10:46:47;9.00;99.90
5346;DHT22;2695;49.444;11.054;2023-04-12T10:49:16;9.20;99.90
5346;DHT22;2695;49.444;11.054;2023-04-12T10:52:12;9.30;99.90
5346;DHT22;2695;49.444;11.054;2023-04-12T10:54:41;9.40;99.90
5346;DHT22;2695;49.444;11.054;2023-04-12T10:57:40;9.40;99.90
5346;DHT22;2695;49.444;11.054;2023-04-12T11:00:11;9.60;99.90
5346;DHT22;2695;49.444;11.054;2023-04-12T11:03:05;9.70;99.90
5346;DHT22;2695;49.444;11.054;2023-04-12T11:05:58;9.80;99.90
5346;DHT22;2695;49.444;11.054;2023-04-12T11:08:38;9.80;99.90
5346;DHT22;2695;49.444;11.054;2023-04-12T11:11:18;9.80;99.90
5346;DHT22;2695;49.444;11.054;2023-04-12T11:13:53;9.90;99.90
5346;DHT22;2695;49.444;11.054;2023-04-12T11:16:24;10.00;99.90
5346;DHT22;2695;49.444;11.054;2023-04-12T11:18:52;10.10;99.90
5346;DHT22;2695;49.444;11.054;2023-04-12T11:21:21;9.90;99.90
5346;DHT22;2695;49.444;11.054;2023-04-12T11:23:50;9.80;99.90
5346;DHT22;2695;49.444;11.054;2023-04-12T11:26:19;9.80;99.90
5346;DHT22;2695;49.444;11.054;2023-04-12T11:28:48;9.70;99.90
5346;DHT22;2695;49.444;11.054;2023-04-12T11:31:19;9.70;99.90
5346;DHT22;2695;49.444;11.054;2023-04-12T11:33:48;9.70;99.90
5346;DHT22;2695;49.444;11.054;2023-04-12T11:36:17;9.70;99.90
5346;DHT22;2695;49.444;11.054;2023-04-12T11:38:46;9.70;99.90
5346;DHT22;2695;49.444;11.054;2023-04-12T11:41:16;9.70;99.90
5346;DHT22;2695;49.444;11.054;2023-04-12T11:43:44;9.80;99.90
5346;DHT22;2695;49.444;11.054;2023-04-12T11:46:12;9.80;99.90
5346;DHT22;2695;49.444;11.054;2023-04-12T11:48:44;10.00;99.90
5346;DHT22;2695;49.444;11.054;2023-04-12T11:51:21;10.10;99.90
5346;DHT22;2695;49.444;11.054;2023-04-12T11:53:54;10.10;99.90
5346;DHT22;2695;49.444;11.054;2023-04-12T11:56:23;9.90;99.90
5346;DHT22;2695;49.444;11.054;2023-04-12T11:58:52;10.00;99.90
5346;DHT22;2695;49.444;11.054;2023-04-12T12:01:21;10.10;99.90
5346;DHT22;2695;49.444;11.054;2023-04-12T12:03:49;10.30;99.90
5346;DHT22;2695;49.444;11.054;2023-04-12T12:06:18;10.40;99.90
5346;DHT22;2695;49.444;11.054;2023-04-12T12:08:50;10.30;99.90
5346;DHT22;2695;49.444;11.054;2023-04-12T12:11:19;10.20;99.90
5346;DHT22;2695;49.444;11.054;2023-04-12T12:13:48;10.20;99.90
5346;DHT22;2695;49.444;11.054;2023-04-12T12:16:17;10.20;99.90
5346;DHT22;2695;49.444;11.054;2023-04-12T12:18:47;10.20;99.90
5346;DHT22;2695;49.444;11.054;2023-04-12T12:21:18;10.40;99.90
5346;DHT22;2695;49.444;11.054;2023-04-12T12:23:48;10.50;99.90
5346;DHT22;2695;49.444;11.054;2023-04-12T12:26:20;10.60;99.90
5346;DHT22;2695;49.444;11.054;2023-04-12T12:28:49;10.60;99.90
5346;DHT22;2695;49.444;11.054;2023-04-12T12:31:19;10.60;99.90
5346;DHT22;2695;49.444;11.054;2023-04-12T12:33:48;10.80;99.90
5346;DHT22;2695;49.444;11.054;2023-04-12T12:36:18;10.90;99.90
5346;DHT22;2695;49.444;11.054;2023-04-12T12:38:47;11.10;99.90
5346;DHT22;2695;49.444;11.054;2023-04-12T12:41:19;11.20;99.90
5346;DHT22;2695;49.444;11.054;2023-04-12T12:43:49;11.20;99.90
5346;DHT22;2695;49.444;11.054;2023-04-12T12:46:18;11.30;99.90
5346;DHT22;2695;49.444;11.054;2023-04-12T12:48:47;11.30;99.90
5346;DHT22;2695;49.444;11.054;2023-04-12T12:51:15;11.20;99.90
5346;DHT22;2695;49.444;11.054;2023-04-12T12:53:45;11.20;99.90
5346;DHT22;2695;49.444;11.054;2023-04-12T12:56:14;11.20;99.90
5346;DHT22;2695;49.444;11.054;2023-04-12T12:58:43;11.10;99.90
5346;DHT22;2695;49.444;11.054;2023-04-12T13:01:12;11.10;99.90
5346;DHT22;2695;49.444;11.054;2023-04-12T13:03:40;11.10;99.90
5346;DHT22;2695;49.444;11.054;2023-04-12T13:06:08;11.20;99.90
5346;DHT22;2695;49.444;11.054;2023-04-12T13:08:36;11.20;99.90
5346;DHT22;2695;49.444;11.054;2023-04-12T13:11:05;11.30;99.90
5346;DHT22;2695;49.444;11.054;2023-04-12T13:13:33;11.40;99.90
5346;DHT22;2695;49.444;11.054;2023-04-12T13:16:04;11.30;99.90
5346;DHT22;2695;49.444;11.054;2023-04-12T13:18:32;11.30;99.90
5346;DHT22;2695;49.444;11.054;2023-04-12T13:21:00;11.50;99.90
5346;DHT22;2695;49.444;11.054;2023-04-12T13:23:28;11.60;99.90
5346;DHT22;2695;49.444;11.054;2023-04-12T13:25:56;11.80;99.90
5346;DHT22;2695;49.444;11.054;2023-04-12T13:28:24;11.90;99.90
5346;DHT22;2695;49.444;11.054;2023-04-12T13:30:52;11.80;99.90
5346;DHT22;2695;49.444;11.054;2023-04-12T13:33:21;11.70;99.90
5346;DHT22;2695;49.444;11.054;2023-04-12T13:35:50;11.50;99.90
5346;DHT22;2695;49.444;11.054;2023-04-12T13:38:18;11.40;99.90
5346;DHT22;2695;49.444;11.054;2023-04-12T13:40:46;11.40;99.90
5346;DHT22;2695;49.444;11.054;2023-04-12T13:43:14;11.50;99.90
5346;DHT22;2695;49.444;11.054;2023-04-12T13:45:42;11.60;99.90
5346;DHT22;2695;49.444;11.054;2023-04-12T13:48:10;12.00;99.90
5346;DHT22;2695;49.444;11.054;2023-04-12T13:50:40;12.50;99.90
5346;DHT22;2695;49.444;11.054;2023-04-12T13:53:08;12.90;99.90
5346;DHT22;2695;49.444;11.054;2023-04-12T13:55:36;13.10;99.90
5346;DHT22;2695;49.444;11.054;2023-04-12T13:58:04;13.10;99.90
5346;DHT22;2695;49.444;11.054;2023-04-12T14:00:32;13.00;99.90
5346;DHT22;2695;49.444;11.054;2023-04-12T14:03:00;12.80;99.90
5346;DHT22;2695;49.444;11.054;2023-04-12T14:05:28;12.70;99.90
5346;DHT22;2695;49.444;11.054;2023-04-12T14:07:57;12.70;99.90
5346;DHT22;2695;49.444;11.054;2023-04-12T14:10:25;12.60;99.90
5346;DHT22;2695;49.444;11.054;2023-04-12T14:12:53;12.60;99.90
5346;DHT22;2695;49.444;11.054;2023-04-12T14:15:21;12.70;99.90
5346;DHT22;2695;49.444;11.054;2023-04-12T14:17:49;12.80;99.90
5346;DHT22;2695;49.444;11.054;2023-04-12T14:20:18;12.90;99.90
5346;DHT22;2695;49.444;11.054;2023-04-12T14:22:46;12.90;99.90
5346;DHT22;2695;49.444;11.054;2023-04-12T14:25:15;12.80;99.90
5346;DHT22;2695;49.444;11.054;2023-04-12T14:27:43;12.80;99.90
5346;DHT22;2695;49.444;11.054;2023-04-12T14:30:12;12.80;99.90
5346;DHT22;2695;49.444;11.054;2023-04-12T14:32:43;12.80;99.90
5346;DHT22;2695;49.444;11.054;2023-04-12T14:35:13;12.60;99.90
5346;DHT22;2695;49.444;11.054;2023-04-12T14:37:41;12.70;99.90
5346;DHT22;2695;49.444;11.054;2023-04-12T14:40:09;12.70;99.90
5346;DHT22;2695;49.444;11.054;2023-04-12T14:42:39;12.80;99.90
5346;DHT22;2695;49.444;11.054;2023-04-12T14:45:08;13.00;99.90
5346;DHT22;2695;49.444;11.054;2023-04-12T14:47:37;13.20;99.90
5346;DHT22;2695;49.444;11.054;2023-04-12T14:50:07;13.30;99.90
5346;DHT22;2695;49.444;11.054;2023-04-12T14:52:35;13.50;99.90
5346;DHT22;2695;49.444;11.054;2023-04-12T14:55:03;13.60;99.90
5346;DHT22;2695;49.444;11.054;2023-04-12T14:57:33;13.80;99.90
5346;DHT22;2695;49.444;11.054;2023-04-12T15:00:03;13.90;99.90
5346;DHT22;2695;49.444;11.054;2023-04-12T15:02:38;14.00;99.90
5346;DHT22;2695;49.444;11.054;2023-04-12T15:05:07;14.10;99.90
5346;DHT22;2695;49.444;11.054;2023-04-12T15:07:35;14.10;99.90
5346;DHT22;2695;49.444;11.054;2023-04-12T15:10:05;13.90;99.90
5346;DHT22;2695;49.444;11.054;2023-04-12T15:12:33;13.60;99.90
5346;DHT22;2695;49.444;11.054;2023-04-12T15:15:08;13.50;99.90
5346;DHT22;2695;49.444;11.054;2023-04-12T15:17:36;13.60;99.90
5346;DHT22;2695;49.444;11.054;2023-04-12T15:20:05;13.60;99.90
5346;DHT22;2695;49.444;11.054;2023-04-12T15:22:38;13.70;99.90
5346;DHT22;2695;49.444;11.054;2023-04-12T15:25:08;13.80;99.90
5346;DHT22;2695;49.444;11.054;2023-04-12T15:27:39;13.90;99.90
5346;DHT22;2695;49.444;11.054;2023-04-12T15:30:12;14.00;99.90
5346;DHT22;2695;49.444;11.054;2023-04-12T15:32:44;14.00;99.90
5346;DHT22;2695;49.444;11.054;2023-04-12T15:35:12;14.00;99.90
5346;DHT22;2695;49.444;11.054;2023-04-12T15:37:53;14.10;99.90
5346;DHT22;2695;49.444;11.054;2023-04-12T15:40:22;14.10;99.90
5346;DHT22;2695;49.444;11.054;2023-04-12T15:42:53;14.20;99.90
5346;DHT22;2695;49.444;11.054;2023-04-12T15:52:43;14.10;99.90
5346;DHT22;2695;49.444;11.054;2023-04-12T15:55:13;14.30;99.90
5346;DHT22;2695;49.444;11.054;2023-04-12T15:57:42;14.20;99.90
5346;DHT22;2695;49.444;11.054;2023-04-12T16:00:11;14.30;99.90
5346;DHT22;2695;49.444;11.054;2023-04-12T16:02:49;14.30;99.90
5346;DHT22;2695;49.444;11.054;2023-04-12T16:05:19;14.30;99.90
5346;DHT22;2695;49.444;11.054;2023-04-12T16:07:49;14.20;99.90
5346;DHT22;2695;49.444;11.054;2023-04-12T16:10:18;14.30;99.90
5346;DHT22;2695;49.444;11.054;2023-04-12T16:12:47;14.40;99.90
5346;DHT22;2695;49.444;11.054;2023-04-12T16:15:16;14.40;99.90
5346;DHT22;2695;49.444;11.054;2023-04-12T16:17:45;14.40;99.90
5346;DHT22;2695;49.444;11.054;2023-04-12T16:20:14;14.20;99.90
5346;DHT22;2695;49.444;11.054;2023-04-12T16:22:49;14.30;99.90
5346;DHT22;2695;49.444;11.054;2023-04-12T16:25:20;14.10;99.90
5346;DHT22;2695;49.444;11.054;2023-04-12T16:27:50;14.10;99.90